sensor_id;sensor_type;location;lat;lon;timestamp;temperature;humidity
17415;DHT22;8825;48.086;16.426;2023-02-25T00:01:24;12.80;60.90
17415;DHT22;8825;48.086;16.426;2023-02-25T00:03:53;12.80;60.90
17415;DHT22;8825;48.086;16.426;2023-02-25T00:06:22;12.80;60.90
17415;DHT22;8825;48.086;16.426;2023-02-25T00:08:51;12.80;61.10
17415;DHT22;8825;48.086;16.426;2023-02-25T00:11:20;12.80;61.10
17415;DHT22;8825;48.086;16.426;2023-02-25T00:13:48;12.80;61.10
17415;DHT22;8825;48.086;16.426;2023-02-25T00:16:17;12.80;61.20
17415;DHT22;8825;48.086;16.426;2023-02-25T00:18:45;12.80;61.10
17415;DHT22;8825;48.086;16.426;2023-02-25T00:21:15;12.80;61.10
17415;DHT22;8825;48.086;16.426;2023-02-25T00:23:45;12.80;61.10
17415;DHT22;8825;48.086;16.426;2023-02-25T00:29:11;12.80;61.00
17415;DHT22;8825;48.086;16.426;2023-02-25T00:31:38;12.70;60.90
17415;DHT22;8825;48.086;16.426;2023-02-25T00:34:06;12.70;61.10
17415;DHT22;8825;48.086;16.426;2023-02-25T00:36:34;12.70;61.10
17415;DHT22;8825;48.086;16.426;2023-02-25T00:39:02;12.70;61.10
17415;DHT22;8825;48.086;16.426;2023-02-25T00:41:29;12.70;61.20
17415;DHT22;8825;48.086;16.426;2023-02-25T00:43:59;12.70;61.50
17415;DHT22;8825;48.086;16.426;2023-02-25T00:49:49;12.60;61.70
17415;DHT22;8825;48.086;16.426;2023-02-25T00:52:17;12.60;62.00
17415;DHT22;8825;48.086;16.426;2023-02-25T00:58:07;12.60;62.40
17415;DHT22;8825;48.086;16.426;2023-02-25T01:04:16;12.40;62.40
17415;DHT22;8825;48.086;16.426;2023-02-25T01:10:07;12.40;62.60
17415;DHT22;8825;48.086;16.426;2023-02-25T01:12:36;12.30;62.20
17415;DHT22;8825;48.086;16.426;2023-02-25T01:18:38;12.20;61.50
17415;DHT22;8825;48.086;16.426;2023-02-25T01:21:06;12.10;61.30
17415;DHT22;8825;48.086;16.426;2023-02-25T01:23:34;12.10;61.60
17415;DHT22;8825;48.086;16.426;2023-02-25T01:29:04;12.00;62.10
17415;DHT22;8825;48.086;16.426;2023-02-25T01:34:53;11.80;62.20
17415;DHT22;8825;48.086;16.426;2023-02-25T01:37:22;11.70;62.20
17415;DHT22;8825;48.086;16.426;2023-02-25T01:39:50;11.60;62.20
17415;DHT22;8825;48.086;16.426;2023-02-25T01:42:17;11.60;61.90
17415;DHT22;8825;48.086;16.426;2023-02-25T01:45:13;11.50;61.60
17415;DHT22;8825;48.086;16.426;2023-02-25T01:47:39;11.40;61.50
17415;DHT22;8825;48.086;16.426;2023-02-25T01:50:10;11.30;62.00
17415;DHT22;8825;48.086;16.426;2023-02-25T01:52:56;11.30;62.40
17415;DHT22;8825;48.086;16.426;2023-02-25T01:58:48;11.10;63.90
17415;DHT22;8825;48.086;16.426;2023-02-25T02:04:38;10.80;65.20
17415;DHT22;8825;48.086;16.426;2023-02-25T02:10:29;10.60;65.80
17415;DHT22;8825;48.086;16.426;2023-02-25T02:12:57;10.50;66.40
17415;DHT22;8825;48.086;16.426;2023-02-25T02:15:25;10.40;66.80
17415;DHT22;8825;48.086;16.426;2023-02-25T02:17:58;10.30;67.10
17415;DHT22;8825;48.086;16.426;2023-02-25T02:24:28;10.30;67.50
17415;DHT22;8825;48.086;16.426;2023-02-25T02:39:19;9.80;67.60
17415;DHT22;8825;48.086;16.426;2023-02-25T02:47:51;9.80;67.80
17415;DHT22;8825;48.086;16.426;2023-02-25T02:50:35;9.80;67.80
17415;DHT22;8825;48.086;16.426;2023-02-25T02:53:10;9.80;67.80
17415;DHT22;8825;48.086;16.426;2023-02-25T02:55:42;9.70;67.40
17415;DHT22;8825;48.086;16.426;2023-02-25T03:01:56;9.60;67.10
17415;DHT22;8825;48.086;16.426;2023-02-25T03:04:26;9.60;67.20
17415;DHT22;8825;48.086;16.426;2023-02-25T03:06:56;9.50;67.30
17415;DHT22;8825;48.086;16.426;2023-02-25T03:09:29;9.50;67.20
17415;DHT22;8825;48.086;16.426;2023-02-25T03:11:57;9.50;67.30
17415;DHT22;8825;48.086;16.426;2023-02-25T03:14:25;9.50;67.30
17415;DHT22;8825;48.086;16.426;2023-02-25T03:17:14;9.50;67.40
17415;DHT22;8825;48.086;16.426;2023-02-25T03:22:37;9.40;67.60
17415;DHT22;8825;48.086;16.426;2023-02-25T03:24:53;9.30;67.60
17415;DHT22;8825;48.086;16.426;2023-02-25T03:30:34;9.30;67.50
17415;DHT22;8825;48.086;16.426;2023-02-25T03:35:51;9.20;67.60
17415;DHT22;8825;48.086;16.426;2023-02-25T03:38:22;9.20;67.80
17415;DHT22;8825;48.086;16.426;2023-02-25T03:40:51;9.20;67.90
17415;DHT22;8825;48.086;16.426;2023-02-25T03:46:44;9.20;67.60
17415;DHT22;8825;48.086;16.426;2023-02-25T03:49:15;9.20;67.50
17415;DHT22;8825;48.086;16.426;2023-02-25T03:51:46;9.10;67.20
17415;DHT22;8825;48.086;16.426;2023-02-25T03:54:15;9.00;66.90
17415;DHT22;8825;48.086;16.426;2023-02-25T03:59:42;9.00;66.60
17415;DHT22;8825;48.086;16.426;2023-02-25T04:05:32;8.90;66.50
17415;DHT22;8825;48.086;16.426;2023-02-25T04:15:16;8.70;65.90
17415;DHT22;8825;48.086;16.426;2023-02-25T04:17:44;8.60;65.70
17415;DHT22;8825;48.086;16.426;2023-02-25T04:20:13;8.60;65.80
17415;DHT22;8825;48.086;16.426;2023-02-25T04:22:45;8.60;65.60
17415;DHT22;8825;48.086;16.426;2023-02-25T04:25:13;8.60;65.40
17415;DHT22;8825;48.086;16.426;2023-02-25T04:27:41;8.60;65.30
17415;DHT22;8825;48.086;16.426;2023-02-25T04:30:09;8.70;65.20
17415;DHT22;8825;48.086;16.426;2023-02-25T04:35:59;8.70;64.70
17415;DHT22;8825;48.086;16.426;2023-02-25T04:48:05;8.60;64.60
17415;DHT22;8825;48.086;16.426;2023-02-25T04:50:52;8.50;64.20
17415;DHT22;8825;48.086;16.426;2023-02-25T04:53:21;8.50;63.00
17415;DHT22;8825;48.086;16.426;2023-02-25T04:55:49;8.50;63.40
17415;DHT22;8825;48.086;16.426;2023-02-25T05:01:39;8.50;63.40
17415;DHT22;8825;48.086;16.426;2023-02-25T05:04:07;8.40;63.30
17415;DHT22;8825;48.086;16.426;2023-02-25T05:06:35;8.40;63.40
17415;DHT22;8825;48.086;16.426;2023-02-25T05:09:03;8.40;63.30
17415;DHT22;8825;48.086;16.426;2023-02-25T05:11:31;8.50;63.40
17415;DHT22;8825;48.086;16.426;2023-02-25T05:13:59;8.50;63.30
17415;DHT22;8825;48.086;16.426;2023-02-25T05:16:27;8.40;62.90
17415;DHT22;8825;48.086;16.426;2023-02-25T05:18:54;8.40;62.70
17415;DHT22;8825;48.086;16.426;2023-02-25T05:21:25;8.40;62.40
17415;DHT22;8825;48.086;16.426;2023-02-25T05:33:11;8.20;62.10
17415;DHT22;8825;48.086;16.426;2023-02-25T05:35:39;8.20;62.00
17415;DHT22;8825;48.086;16.426;2023-02-25T05:38:07;8.20;62.00
17415;DHT22;8825;48.086;16.426;2023-02-25T05:40:37;8.20;61.80
17415;DHT22;8825;48.086;16.426;2023-02-25T05:43:04;8.20;61.80
17415;DHT22;8825;48.086;16.426;2023-02-25T05:45:32;8.20;61.80
17415;DHT22;8825;48.086;16.426;2023-02-25T05:48:00;8.20;61.70
17415;DHT22;8825;48.086;16.426;2023-02-25T05:50:28;8.10;61.40
17415;DHT22;8825;48.086;16.426;2023-02-25T05:52:57;8.10;61.40
17415;DHT22;8825;48.086;16.426;2023-02-25T05:55:25;8.10;61.30
17415;DHT22;8825;48.086;16.426;2023-02-25T05:57:53;8.10;61.20
17415;DHT22;8825;48.086;16.426;2023-02-25T06:00:21;8.10;61.20
17415;DHT22;8825;48.086;16.426;2023-02-25T06:06:15;8.10;61.00
17415;DHT22;8825;48.086;16.426;2023-02-25T06:08:42;8.10;61.00
17415;DHT22;8825;48.086;16.426;2023-02-25T06:11:20;8.00;60.80
17415;DHT22;8825;48.086;16.426;2023-02-25T06:17:10;8.00;61.00
17415;DHT22;8825;48.086;16.426;2023-02-25T06:19:38;8.00;61.00
17415;DHT22;8825;48.086;16.426;2023-02-25T06:22:06;7.90;61.10
17415;DHT22;8825;48.086;16.426;2023-02-25T06:24:34;7.90;61.10
17415;DHT22;8825;48.086;16.426;2023-02-25T06:27:01;7.90;61.30
17415;DHT22;8825;48.086;16.426;2023-02-25T06:29:29;7.90;61.40
17415;DHT22;8825;48.086;16.426;2023-02-25T06:31:57;7.90;61.50
17415;DHT22;8825;48.086;16.426;2023-02-25T06:34:25;7.90;61.40
17415;DHT22;8825;48.086;16.426;2023-02-25T06:36:54;7.90;61.40
17415;DHT22;8825;48.086;16.426;2023-02-25T06:46:08;7.90;61.30
17415;DHT22;8825;48.086;16.426;2023-02-25T06:51:58;7.90;61.30
17415;DHT22;8825;48.086;16.426;2023-02-25T06:54:26;7.90;61.40
17415;DHT22;8825;48.086;16.426;2023-02-25T06:56:54;7.90;61.30
17415;DHT22;8825;48.086;16.426;2023-02-25T07:02:32;8.00;61.70
17415;DHT22;8825;48.086;16.426;2023-02-25T07:04:59;8.00;61.30
17415;DHT22;8825;48.086;16.426;2023-02-25T07:07:28;8.00;61.20
17415;DHT22;8825;48.086;16.426;2023-02-25T07:09:56;8.00;61.10
17415;DHT22;8825;48.086;16.426;2023-02-25T07:12:24;8.00;61.10
17415;DHT22;8825;48.086;16.426;2023-02-25T07:14:52;8.00;60.90
17415;DHT22;8825;48.086;16.426;2023-02-25T07:17:19;8.00;60.70
17415;DHT22;8825;48.086;16.426;2023-02-25T07:23:09;8.00;60.30
17415;DHT22;8825;48.086;16.426;2023-02-25T07:25:37;8.10;60.10
17415;DHT22;8825;48.086;16.426;2023-02-25T07:28:05;8.00;60.00
17415;DHT22;8825;48.086;16.426;2023-02-25T07:30:33;8.10;60.20
17415;DHT22;8825;48.086;16.426;2023-02-25T07:33:01;8.10;60.20
17415;DHT22;8825;48.086;16.426;2023-02-25T07:35:29;8.20;60.30
17415;DHT22;8825;48.086;16.426;2023-02-25T07:44:41;8.40;59.30
17415;DHT22;8825;48.086;16.426;2023-02-25T07:47:11;8.40;58.60
17415;DHT22;8825;48.086;16.426;2023-02-25T07:53:01;8.50;58.50
17415;DHT22;8825;48.086;16.426;2023-02-25T07:55:29;8.60;58.10
17415;DHT22;8825;48.086;16.426;2023-02-25T07:57:57;8.60;57.70
17415;DHT22;8825;48.086;16.426;2023-02-25T08:00:25;8.60;56.80
17415;DHT22;8825;48.086;16.426;2023-02-25T08:02:53;8.70;56.80
17415;DHT22;8825;48.086;16.426;2023-02-25T08:05:21;8.70;56.00
17415;DHT22;8825;48.086;16.426;2023-02-25T08:07:49;8.70;56.30
17415;DHT22;8825;48.086;16.426;2023-02-25T08:13:40;8.80;55.90
17415;DHT22;8825;48.086;16.426;2023-02-25T08:16:10;8.80;56.10
17415;DHT22;8825;48.086;16.426;2023-02-25T08:18:38;8.80;56.60
17415;DHT22;8825;48.086;16.426;2023-02-25T08:21:14;9.00;56.50
17415;DHT22;8825;48.086;16.426;2023-02-25T08:27:00;9.10;56.40
17415;DHT22;8825;48.086;16.426;2023-02-25T08:29:28;9.10;56.00
17415;DHT22;8825;48.086;16.426;2023-02-25T08:31:56;9.10;56.10
17415;DHT22;8825;48.086;16.426;2023-02-25T08:37:47;9.20;55.60
17415;DHT22;8825;48.086;16.426;2023-02-25T08:40:15;9.20;55.70
17415;DHT22;8825;48.086;16.426;2023-02-25T08:42:43;9.20;55.80
17415;DHT22;8825;48.086;16.426;2023-02-25T08:45:11;9.20;55.90
17415;DHT22;8825;48.086;16.426;2023-02-25T08:47:39;9.20;55.90
17415;DHT22;8825;48.086;16.426;2023-02-25T08:53:28;9.30;56.00
17415;DHT22;8825;48.086;16.426;2023-02-25T08:56:00;9.40;55.30
17415;DHT22;8825;48.086;16.426;2023-02-25T08:58:25;9.40;55.20
17415;DHT22;8825;48.086;16.426;2023-02-25T09:00:54;9.40;55.60
17415;DHT22;8825;48.086;16.426;2023-02-25T09:03:22;9.40;55.30
17415;DHT22;8825;48.086;16.426;2023-02-25T09:05:54;9.40;54.90
17415;DHT22;8825;48.086;16.426;2023-02-25T09:08:22;9.50;55.10
17415;DHT22;8825;48.086;16.426;2023-02-25T09:10:50;9.50;54.70
17415;DHT22;8825;48.086;16.426;2023-02-25T09:13:18;9.60;54.50
17415;DHT22;8825;48.086;16.426;2023-02-25T09:15:56;9.70;54.30
17415;DHT22;8825;48.086;16.426;2023-02-25T09:18:25;9.70;53.70
17415;DHT22;8825;48.086;16.426;2023-02-25T09:20:52;9.80;53.90
17415;DHT22;8825;48.086;16.426;2023-02-25T09:23:20;10.00;53.60
17415;DHT22;8825;48.086;16.426;2023-02-25T09:25:48;10.20;53.50
17415;DHT22;8825;48.086;16.426;2023-02-25T09:28:16;10.60;53.00
17415;DHT22;8825;48.086;16.426;2023-02-25T09:33:42;11.40;50.30
17415;DHT22;8825;48.086;16.426;2023-02-25T09:36:15;11.90;47.80
17415;DHT22;8825;48.086;16.426;2023-02-25T09:38:44;12.10;46.80
17415;DHT22;8825;48.086;16.426;2023-02-25T09:44:44;12.60;45.90
17415;DHT22;8825;48.086;16.426;2023-02-25T09:49:50;13.00;43.90
17415;DHT22;8825;48.086;16.426;2023-02-25T09:58:45;13.60;42.30
17415;DHT22;8825;48.086;16.426;2023-02-25T10:01:50;13.60;41.60
17415;DHT22;8825;48.086;16.426;2023-02-25T10:04:02;13.70;41.40
17415;DHT22;8825;48.086;16.426;2023-02-25T10:06:49;13.70;41.10
17415;DHT22;8825;48.086;16.426;2023-02-25T10:09:37;13.90;41.20
17415;DHT22;8825;48.086;16.426;2023-02-25T10:15:01;14.30;40.20
17415;DHT22;8825;48.086;16.426;2023-02-25T10:17:44;14.50;39.20
17415;DHT22;8825;48.086;16.426;2023-02-25T10:32:33;14.30;37.10
17415;DHT22;8825;48.086;16.426;2023-02-25T10:35:13;13.70;37.60
17415;DHT22;8825;48.086;16.426;2023-02-25T10:41:21;12.70;38.50
17415;DHT22;8825;48.086;16.426;2023-02-25T10:43:51;12.20;40.20
17415;DHT22;8825;48.086;16.426;2023-02-25T10:46:49;11.90;40.90
17415;DHT22;8825;48.086;16.426;2023-02-25T10:49:20;11.60;42.20
17415;DHT22;8825;48.086;16.426;2023-02-25T10:52:20;11.30;43.20
17415;DHT22;8825;48.086;16.426;2023-02-25T10:57:57;11.10;44.60
17415;DHT22;8825;48.086;16.426;2023-02-25T11:03:56;11.00;45.70
17415;DHT22;8825;48.086;16.426;2023-02-25T11:06:33;11.10;45.90
17415;DHT22;8825;48.086;16.426;2023-02-25T11:09:04;11.20;44.60
17415;DHT22;8825;48.086;16.426;2023-02-25T11:11:34;11.20;44.50
17415;DHT22;8825;48.086;16.426;2023-02-25T11:16:39;11.10;43.10
17415;DHT22;8825;48.086;16.426;2023-02-25T11:19:19;11.10;43.90
17415;DHT22;8825;48.086;16.426;2023-02-25T11:21:46;11.20;43.70
17415;DHT22;8825;48.086;16.426;2023-02-25T11:24:21;11.20;43.10
17415;DHT22;8825;48.086;16.426;2023-02-25T11:30:18;11.30;44.00
17415;DHT22;8825;48.086;16.426;2023-02-25T11:32:48;11.30;43.30
17415;DHT22;8825;48.086;16.426;2023-02-25T11:35:23;11.30;43.90
17415;DHT22;8825;48.086;16.426;2023-02-25T11:37:49;11.50;44.60
17415;DHT22;8825;48.086;16.426;2023-02-25T11:43:41;11.70;43.90
17415;DHT22;8825;48.086;16.426;2023-02-25T11:49:47;11.90;43.60
17415;DHT22;8825;48.086;16.426;2023-02-25T11:58:44;12.20;43.30
17415;DHT22;8825;48.086;16.426;2023-02-25T12:04:07;12.40;43.20
17415;DHT22;8825;48.086;16.426;2023-02-25T12:30:15;12.40;39.80
17415;DHT22;8825;48.086;16.426;2023-02-25T12:41:39;11.70;40.50
17415;DHT22;8825;48.086;16.426;2023-02-25T12:59:22;11.50;41.10
17415;DHT22;8825;48.086;16.426;2023-02-25T13:08:56;11.60;40.80
17415;DHT22;8825;48.086;16.426;2023-02-25T13:22:39;12.00;39.70
17415;DHT22;8825;48.086;16.426;2023-02-25T13:33:55;12.50;37.40
17415;DHT22;8825;48.086;16.426;2023-02-25T13:39:49;12.50;37.20
17415;DHT22;8825;48.086;16.426;2023-02-25T14:10:39;12.30;38.60
17415;DHT22;8825;48.086;16.426;2023-02-25T14:28:16;12.20;39.10
17415;DHT22;8825;48.086;16.426;2023-02-25T14:55:06;11.40;40.80
17415;DHT22;8825;48.086;16.426;2023-02-25T15:15:37;11.10;41.20
17415;DHT22;8825;48.086;16.426;2023-02-25T15:24:43;11.00;41.70
17415;DHT22;8825;48.086;16.426;2023-02-25T15:30:09;10.90;41.70
17415;DHT22;8825;48.086;16.426;2023-02-25T15:38:17;10.80;42.30
17415;DHT22;8825;48.086;16.426;2023-02-25T15:40:50;10.70;42.60
17415;DHT22;8825;48.086;16.426;2023-02-25T16:11:35;9.90;44.30
17415;DHT22;8825;48.086;16.426;2023-02-25T16:14:19;9.80;44.60
17415;DHT22;8825;48.086;16.426;2023-02-25T16:16:54;9.70;44.90
17415;DHT22;8825;48.086;16.426;2023-02-25T16:19:23;9.70;45.40
17415;DHT22;8825;48.086;16.426;2023-02-25T16:21:59;9.60;45.90
17415;DHT22;8825;48.086;16.426;2023-02-25T16:24:27;9.50;46.10
17415;DHT22;8825;48.086;16.426;2023-02-25T16:30:38;9.40;46.60
17415;DHT22;8825;48.086;16.426;2023-02-25T16:35:48;9.20;47.60
17415;DHT22;8825;48.086;16.426;2023-02-25T16:41:03;9.10;48.40
17415;DHT22;8825;48.086;16.426;2023-02-25T16:55:46;8.70;50.50
17415;DHT22;8825;48.086;16.426;2023-02-25T17:00:56;8.60;51.20
17415;DHT22;8825;48.086;16.426;2023-02-25T17:13:01;8.50;53.70
17415;DHT22;8825;48.086;16.426;2023-02-25T17:15:33;8.40;54.40
17415;DHT22;8825;48.086;16.426;2023-02-25T17:24:16;8.20;55.00
17415;DHT22;8825;48.086;16.426;2023-02-25T17:26:46;8.10;55.30
17415;DHT22;8825;48.086;16.426;2023-02-25T17:29:16;8.10;55.50
17415;DHT22;8825;48.086;16.426;2023-02-25T17:31:47;8.10;55.60
17415;DHT22;8825;48.086;16.426;2023-02-25T17:34:35;8.00;55.60
17415;DHT22;8825;48.086;16.426;2023-02-25T17:36:49;8.00;55.50
17415;DHT22;8825;48.086;16.426;2023-02-25T17:39:19;8.00;55.40
17415;DHT22;8825;48.086;16.426;2023-02-25T17:41:48;8.00;55.40
17415;DHT22;8825;48.086;16.426;2023-02-25T17:47:10;8.00;55.30
17415;DHT22;8825;48.086;16.426;2023-02-25T17:49:38;8.00;55.60
17415;DHT22;8825;48.086;16.426;2023-02-25T17:52:18;8.00;55.90
17415;DHT22;8825;48.086;16.426;2023-02-25T17:54:52;8.00;56.30
17415;DHT22;8825;48.086;16.426;2023-02-25T17:57:21;7.90;56.90
17415;DHT22;8825;48.086;16.426;2023-02-25T17:59:55;7.90;57.00
17415;DHT22;8825;48.086;16.426;2023-02-25T18:05:39;7.90;57.00
17415;DHT22;8825;48.086;16.426;2023-02-25T18:08:18;7.90;57.00
17415;DHT22;8825;48.086;16.426;2023-02-25T18:10:45;7.90;57.40
17415;DHT22;8825;48.086;16.426;2023-02-25T18:16:40;7.90;59.00
17415;DHT22;8825;48.086;16.426;2023-02-25T18:22:46;7.70;61.10
17415;DHT22;8825;48.086;16.426;2023-02-25T18:25:32;7.60;61.70
17415;DHT22;8825;48.086;16.426;2023-02-25T18:28:01;7.60;61.90
17415;DHT22;8825;48.086;16.426;2023-02-25T18:30:30;7.50;61.50
17415;DHT22;8825;48.086;16.426;2023-02-25T18:38:31;7.40;60.60
17415;DHT22;8825;48.086;16.426;2023-02-25T18:41:01;7.30;60.60
17415;DHT22;8825;48.086;16.426;2023-02-25T18:43:31;7.30;60.50
17415;DHT22;8825;48.086;16.426;2023-02-25T18:46:01;7.20;60.50
17415;DHT22;8825;48.086;16.426;2023-02-25T18:48:28;7.10;60.50
17415;DHT22;8825;48.086;16.426;2023-02-25T18:50:58;7.10;60.50
17415;DHT22;8825;48.086;16.426;2023-02-25T18:53:26;7.00;60.50
17415;DHT22;8825;48.086;16.426;2023-02-25T18:55:55;7.00;60.50
17415;DHT22;8825;48.086;16.426;2023-02-25T19:01:45;6.90;60.40
17415;DHT22;8825;48.086;16.426;2023-02-25T19:07:00;6.80;60.50
17415;DHT22;8825;48.086;16.426;2023-02-25T19:12:50;6.70;60.60
17415;DHT22;8825;48.086;16.426;2023-02-25T19:15:20;6.70;60.70
17415;DHT22;8825;48.086;16.426;2023-02-25T19:17:48;6.60;60.60
17415;DHT22;8825;48.086;16.426;2023-02-25T19:23:15;6.60;60.60
17415;DHT22;8825;48.086;16.426;2023-02-25T19:25:44;6.50;60.80
17415;DHT22;8825;48.086;16.426;2023-02-25T19:28:13;6.50;60.90
17415;DHT22;8825;48.086;16.426;2023-02-25T19:30:42;6.50;61.10
17415;DHT22;8825;48.086;16.426;2023-02-25T19:33:11;6.40;61.10
17415;DHT22;8825;48.086;16.426;2023-02-25T19:35:41;6.40;61.20
17415;DHT22;8825;48.086;16.426;2023-02-25T19:38:15;6.40;61.30
17415;DHT22;8825;48.086;16.426;2023-02-25T19:40:44;6.40;61.40
17415;DHT22;8825;48.086;16.426;2023-02-25T19:43:14;6.40;61.40
17415;DHT22;8825;48.086;16.426;2023-02-25T19:45:42;6.30;61.20
17415;DHT22;8825;48.086;16.426;2023-02-25T19:48:10;6.30;61.10
17415;DHT22;8825;48.086;16.426;2023-02-25T19:50:40;6.40;61.10
17415;DHT22;8825;48.086;16.426;2023-02-25T19:53:08;6.40;61.20
17415;DHT22;8825;48.086;16.426;2023-02-25T19:58:47;6.40;60.90
17415;DHT22;8825;48.086;16.426;2023-02-25T20:01:14;6.40;61.10
17415;DHT22;8825;48.086;16.426;2023-02-25T20:03:42;6.40;61.30
17415;DHT22;8825;48.086;16.426;2023-02-25T20:06:11;6.40;61.50
17415;DHT22;8825;48.086;16.426;2023-02-25T20:12:00;6.40;61.90
17415;DHT22;8825;48.086;16.426;2023-02-25T20:14:28;6.40;62.10
17415;DHT22;8825;48.086;16.426;2023-02-25T20:16:58;6.30;62.20
17415;DHT22;8825;48.086;16.426;2023-02-25T20:19:27;6.30;62.30
17415;DHT22;8825;48.086;16.426;2023-02-25T20:21:57;6.30;62.50
17415;DHT22;8825;48.086;16.426;2023-02-25T20:24:25;6.40;62.60
17415;DHT22;8825;48.086;16.426;2023-02-25T20:26:53;6.40;62.70
17415;DHT22;8825;48.086;16.426;2023-02-25T20:32:44;6.30;62.30
17415;DHT22;8825;48.086;16.426;2023-02-25T20:38:39;6.30;62.20
17415;DHT22;8825;48.086;16.426;2023-02-25T20:40:46;6.40;62.30
17415;DHT22;8825;48.086;16.426;2023-02-25T20:43:14;6.40;62.10
17415;DHT22;8825;48.086;16.426;2023-02-25T20:49:05;6.40;61.90
17415;DHT22;8825;48.086;16.426;2023-02-25T20:51:37;6.30;61.80
17415;DHT22;8825;48.086;16.426;2023-02-25T20:57:27;6.30;61.80
17415;DHT22;8825;48.086;16.426;2023-02-25T21:03:17;6.30;62.10
17415;DHT22;8825;48.086;16.426;2023-02-25T21:05:45;6.20;62.10
17415;DHT22;8825;48.086;16.426;2023-02-25T21:08:13;6.30;62.30
17415;DHT22;8825;48.086;16.426;2023-02-25T21:14:03;6.30;62.40
17415;DHT22;8825;48.086;16.426;2023-02-25T21:16:32;6.30;62.40
17415;DHT22;8825;48.086;16.426;2023-02-25T21:22:22;6.30;62.30
17415;DHT22;8825;48.086;16.426;2023-02-25T21:28:12;6.30;62.20
17415;DHT22;8825;48.086;16.426;2023-02-25T21:30:40;6.30;62.20
17415;DHT22;8825;48.086;16.426;2023-02-25T21:33:08;6.40;62.20
17415;DHT22;8825;48.086;16.426;2023-02-25T21:35:38;6.40;62.10
17415;DHT22;8825;48.086;16.426;2023-02-25T21:38:06;6.40;62.00
17415;DHT22;8825;48.086;16.426;2023-02-25T21:40:34;6.30;61.90
17415;DHT22;8825;48.086;16.426;2023-02-25T21:43:01;6.30;61.90
17415;DHT22;8825;48.086;16.426;2023-02-25T21:45:29;6.30;62.00
17415;DHT22;8825;48.086;16.426;2023-02-25T21:47:57;6.30;62.10
17415;DHT22;8825;48.086;16.426;2023-02-25T21:53:47;6.40;62.00
17415;DHT22;8825;48.086;16.426;2023-02-25T21:56:16;6.40;62.00
17415;DHT22;8825;48.086;16.426;2023-02-25T21:58:44;6.40;61.90
17415;DHT22;8825;48.086;16.426;2023-02-25T22:01:18;6.40;61.90
17415;DHT22;8825;48.086;16.426;2023-02-25T22:03:46;6.40;62.70
17415;DHT22;8825;48.086;16.426;2023-02-25T22:06:15;6.40;61.70
17415;DHT22;8825;48.086;16.426;2023-02-25T22:08:43;6.40;61.60
17415;DHT22;8825;48.086;16.426;2023-02-25T22:11:14;6.40;61.50
17415;DHT22;8825;48.086;16.426;2023-02-25T22:13:42;6.40;61.50
17415;DHT22;8825;48.086;16.426;2023-02-25T22:16:11;6.40;61.60
17415;DHT22;8825;48.086;16.426;2023-02-25T22:18:38;6.40;61.60
17415;DHT22;8825;48.086;16.426;2023-02-25T22:21:18;6.40;61.50
17415;DHT22;8825;48.086;16.426;2023-02-25T22:23:48;6.30;61.50
17415;DHT22;8825;48.086;16.426;2023-02-25T22:26:18;6.40;61.40
17415;DHT22;8825;48.086;16.426;2023-02-25T22:28:47;6.40;61.30
17415;DHT22;8825;48.086;16.426;2023-02-25T22:31:16;6.40;61.10
17415;DHT22;8825;48.086;16.426;2023-02-25T22:33:45;6.40;60.90
17415;DHT22;8825;48.086;16.426;2023-02-25T22:36:14;6.40;60.80
17415;DHT22;8825;48.086;16.426;2023-02-25T22:38:44;6.40;60.70
17415;DHT22;8825;48.086;16.426;2023-02-25T22:41:15;6.40;60.70
17415;DHT22;8825;48.086;16.426;2023-02-25T22:43:43;6.40;60.80
17415;DHT22;8825;48.086;16.426;2023-02-25T22:46:13;6.50;60.80
17415;DHT22;8825;48.086;16.426;2023-02-25T22:48:43;6.50;60.80
17415;DHT22;8825;48.086;16.426;2023-02-25T22:51:12;6.50;60.70
17415;DHT22;8825;48.086;16.426;2023-02-25T22:53:40;6.50;60.60
17415;DHT22;8825;48.086;16.426;2023-02-25T22:56:09;6.50;60.50
17415;DHT22;8825;48.086;16.426;2023-02-25T22:58:38;6.50;60.40
17415;DHT22;8825;48.086;16.426;2023-02-25T23:01:11;6.50;60.30
17415;DHT22;8825;48.086;16.426;2023-02-25T23:03:39;6.50;60.20
17415;DHT22;8825;48.086;16.426;2023-02-25T23:06:10;6.50;60.10
17415;DHT22;8825;48.086;16.426;2023-02-25T23:08:38;6.50;60.00
17415;DHT22;8825;48.086;16.426;2023-02-25T23:13:41;6.60;60.00
17415;DHT22;8825;48.086;16.426;2023-02-25T23:16:12;6.50;60.00
17415;DHT22;8825;48.086;16.426;2023-02-25T23:22:02;6.50;59.80
17415;DHT22;8825;48.086;16.426;2023-02-25T23:27:52;6.60;59.70
17415;DHT22;8825;48.086;16.426;2023-02-25T23:33:42;6.60;59.60
17415;DHT22;8825;48.086;16.426;2023-02-25T23:36:11;6.50;59.60
17415;DHT22;8825;48.086;16.426;2023-02-25T23:38:39;6.50;59.60
17415;DHT22;8825;48.086;16.426;2023-02-25T23:41:07;6.50;59.60
17415;DHT22;8825;48.086;16.426;2023-02-25T23:43:34;6.50;59.70
17415;DHT22;8825;48.086;16.426;2023-02-25T23:49:24;6.50;59.80
17415;DHT22;8825;48.086;16.426;2023-02-25T23:51:52;6.50;59.70
17415;DHT22;8825;48.086;16.426;2023-02-25T23:57:41;6.50;59.60
